createdAt,value
2017-11-14T00:02:17.989Z,2.90
2017-11-14T00:04:44.415Z,2.80
2017-11-14T00:07:10.783Z,2.90
2017-11-14T00:09:37.152Z,2.90
2017-11-14T00:12:03.531Z,3.00
2017-11-14T00:14:30.652Z,3.00
2017-11-14T00:16:57.036Z,3.00
2017-11-14T00:19:23.448Z,3.10
2017-11-14T00:21:50.568Z,3.10
2017-11-14T00:24:16.959Z,3.10
2017-11-14T00:26:44.382Z,3.10
2017-11-14T00:29:11.488Z,3.10
2017-11-14T00:31:37.877Z,3.00
2017-11-14T00:34:04.985Z,3.00
2017-11-14T00:36:31.352Z,3.00
2017-11-14T00:38:58.465Z,3.00
2017-11-14T00:41:24.851Z,3.00
2017-11-14T00:43:51.212Z,3.00
2017-11-14T00:46:17.601Z,3.00
2017-11-14T00:48:44.808Z,3.30
2017-11-14T00:51:11.193Z,3.20
2017-11-14T00:53:38.324Z,3.30
2017-11-14T00:56:04.685Z,3.30
2017-11-14T00:58:31.051Z,3.30
2017-11-14T01:00:57.440Z,3.40
2017-11-14T01:03:24.546Z,3.50
2017-11-14T01:05:50.900Z,3.40
2017-11-14T01:08:17.287Z,3.40
2017-11-14T01:10:43.655Z,3.50
2017-11-14T01:13:10.148Z,3.40
2017-11-14T01:15:36.544Z,3.30
2017-11-14T01:18:03.644Z,3.00
2017-11-14T01:20:29.997Z,3.00
2017-11-14T01:22:56.414Z,2.90
2017-11-14T01:25:22.787Z,2.90
2017-11-14T01:27:49.189Z,3.00
2017-11-14T01:30:15.564Z,3.00
2017-11-14T01:32:42.705Z,3.10
2017-11-14T01:35:09.098Z,3.00
2017-11-14T01:37:35.512Z,2.90
2017-11-14T01:40:01.928Z,2.80
2017-11-14T01:42:28.295Z,2.60
2017-11-14T01:44:54.740Z,2.40
2017-11-14T01:47:21.108Z,2.50
2017-11-14T01:49:49.540Z,2.50
2017-11-14T01:52:15.956Z,2.40
2017-11-14T01:54:42.363Z,2.50
2017-11-14T01:57:09.492Z,2.30
2017-11-14T01:59:35.900Z,2.30
2017-11-14T02:02:02.256Z,2.30
2017-11-14T02:04:29.639Z,2.20
2017-11-14T02:06:56.979Z,2.00
2017-11-14T02:09:24.145Z,1.90
2017-11-14T02:11:50.559Z,1.90
2017-11-14T02:14:16.981Z,1.80
2017-11-14T02:16:43.399Z,1.60
2017-11-14T02:19:09.801Z,1.50
2017-11-14T02:21:36.219Z,1.40
2017-11-14T02:24:02.636Z,1.40
2017-11-14T02:26:29.821Z,1.30
2017-11-14T02:28:56.226Z,1.30
2017-11-14T02:31:23.367Z,1.30
2017-11-14T02:33:51.512Z,1.20
2017-11-14T02:36:17.965Z,1.20
2017-11-14T02:38:44.413Z,1.20
2017-11-14T02:41:11.578Z,1.10
2017-11-14T02:43:37.975Z,1.00
2017-11-14T02:46:04.383Z,1.00
2017-11-14T02:48:30.821Z,1.00
2017-11-14T02:50:57.223Z,1.00
2017-11-14T02:53:23.634Z,1.00
2017-11-14T02:55:51.792Z,1.00
2017-11-14T02:58:18.961Z,1.00
2017-11-14T03:00:46.430Z,1.00
2017-11-14T03:03:12.808Z,1.10
2017-11-14T03:05:40.233Z,1.10
2017-11-14T03:08:06.636Z,1.10
2017-11-14T03:10:33.763Z,1.00
2017-11-14T03:13:00.149Z,0.90
2017-11-14T03:15:26.552Z,0.90
2017-11-14T03:17:53.688Z,0.90
2017-11-14T03:20:20.092Z,0.90
2017-11-14T03:22:46.493Z,0.90
2017-11-14T03:25:12.891Z,0.90
2017-11-14T03:27:39.351Z,1.00
2017-11-14T03:30:05.764Z,1.10
2017-11-14T03:32:32.237Z,1.00
2017-11-14T03:34:58.652Z,1.00
2017-11-14T03:37:25.800Z,1.00
2017-11-14T03:39:52.231Z,0.90
2017-11-14T03:42:19.347Z,0.90
2017-11-14T03:44:45.751Z,0.90
2017-11-14T03:47:12.148Z,0.90
2017-11-14T03:49:39.274Z,0.80
2017-11-14T03:52:05.701Z,0.80
2017-11-14T03:54:32.115Z,0.70
2017-11-14T03:56:58.508Z,0.70
2017-11-14T03:59:24.946Z,0.70
2017-11-14T04:01:51.353Z,0.60
2017-11-14T04:04:18.536Z,0.50
2017-11-14T04:06:44.981Z,0.50
2017-11-14T04:09:11.369Z,0.50
2017-11-14T04:11:38.517Z,0.40
2017-11-14T04:14:04.918Z,0.40
2017-11-14T04:16:31.286Z,0.40
2017-11-14T04:18:58.402Z,0.30
2017-11-14T04:21:24.785Z,0.20
2017-11-14T04:23:51.917Z,0.20
2017-11-14T04:26:18.284Z,0.10
2017-11-14T04:28:44.763Z,0.10
2017-11-14T04:31:11.125Z,0.10
2017-11-14T04:33:38.245Z,0.20
2017-11-14T04:36:04.603Z,0.20
2017-11-14T04:38:31.741Z,0.10
2017-11-14T04:40:58.133Z,0.10
2017-11-14T04:43:24.500Z,0.10
2017-11-14T04:45:50.892Z,0.10
2017-11-14T04:48:17.255Z,0.10
2017-11-14T04:50:43.620Z,0.10
2017-11-14T04:53:10.736Z,0.20
2017-11-14T04:55:37.095Z,0.10
2017-11-14T04:58:03.463Z,0.20
2017-11-14T05:00:29.815Z,0.20
2017-11-14T05:02:56.195Z,0.10
2017-11-14T05:05:23.311Z,0.10
2017-11-14T05:07:49.684Z,0.10
2017-11-14T05:10:16.791Z,0.20
2017-11-14T05:12:43.163Z,0.10
2017-11-14T05:15:10.281Z,0.20
2017-11-14T05:17:37.697Z,0.20
2017-11-14T05:20:04.089Z,0.20
2017-11-14T05:22:31.203Z,0.10
2017-11-14T05:24:57.575Z,0.10
2017-11-14T05:27:24.988Z,0.10
2017-11-14T05:29:51.404Z,0.00
2017-11-14T05:32:17.764Z,0.00
2017-11-14T05:34:44.210Z,0.00
2017-11-14T05:37:10.931Z,0.00
2017-11-14T05:39:37.308Z,0.00
2017-11-14T05:42:03.676Z,0.00
2017-11-14T05:44:30.048Z,0.00
2017-11-14T05:46:57.233Z,0.00
2017-11-14T05:49:23.601Z,0.00
2017-11-14T05:51:50.001Z,0.10
2017-11-14T05:54:18.160Z,0.10
2017-11-14T05:56:44.529Z,0.10
2017-11-14T05:59:11.816Z,0.10
2017-11-14T06:01:38.184Z,0.00
2017-11-14T06:04:04.577Z,-0.10
2017-11-14T06:06:30.962Z,-0.10
2017-11-14T06:08:58.065Z,-0.40
2017-11-14T06:11:24.482Z,-0.40
2017-11-14T06:13:50.838Z,-0.40
2017-11-14T06:16:17.219Z,-0.50
2017-11-14T06:18:44.320Z,-0.50
2017-11-14T06:21:10.724Z,-0.40
2017-11-14T06:23:37.856Z,-0.50
2017-11-14T06:26:04.219Z,-0.40
2017-11-14T06:28:30.625Z,-0.40
2017-11-14T06:30:56.993Z,-0.30
2017-11-14T06:33:23.366Z,-0.40
2017-11-14T06:35:50.499Z,0.00
2017-11-14T06:38:16.859Z,-0.10
2017-11-14T06:40:43.988Z,0.10
2017-11-14T06:43:10.346Z,0.10
2017-11-14T06:45:36.763Z,0.10
2017-11-14T06:48:03.874Z,0.10
2017-11-14T06:50:30.308Z,0.00
2017-11-14T06:52:56.679Z,0.00
2017-11-14T06:55:23.784Z,0.10
2017-11-14T06:57:50.182Z,0.00
2017-11-14T07:00:16.566Z,0.10
2017-11-14T07:02:42.940Z,0.10
2017-11-14T07:05:10.053Z,0.20
2017-11-14T07:07:36.419Z,0.20
2017-11-14T07:10:03.532Z,0.30
2017-11-14T07:12:29.933Z,0.30
2017-11-14T07:14:56.312Z,0.30
2017-11-14T07:17:22.675Z,0.40
2017-11-14T07:19:50.060Z,0.60
2017-11-14T07:22:16.415Z,0.60
2017-11-14T07:24:42.871Z,0.60
2017-11-14T07:27:09.288Z,0.60
2017-11-14T07:29:35.690Z,0.60
2017-11-14T07:32:02.064Z,0.50
2017-11-14T07:34:28.435Z,0.70
2017-11-14T07:36:54.821Z,0.70
2017-11-14T07:39:21.195Z,0.70
2017-11-14T07:41:48.298Z,0.80
2017-11-14T07:44:14.664Z,0.80
2017-11-14T07:46:41.796Z,0.90
2017-11-14T07:49:08.192Z,0.90
2017-11-14T07:51:34.547Z,1.00
2017-11-14T07:54:01.923Z,1.10
2017-11-14T07:56:28.279Z,1.10
2017-11-14T07:58:55.405Z,1.20
2017-11-14T08:01:23.040Z,1.20
2017-11-14T08:03:49.427Z,1.30
2017-11-14T08:06:16.789Z,1.40
2017-11-14T08:08:43.373Z,1.40
2017-11-14T08:11:09.747Z,1.50
2017-11-14T08:13:37.104Z,1.60
2017-11-14T08:16:03.487Z,1.60
2017-11-14T08:18:29.844Z,1.60
2017-11-14T08:20:57.327Z,1.90
2017-11-14T08:23:24.510Z,2.00
2017-11-14T08:25:50.887Z,1.90
2017-11-14T08:28:17.589Z,2.10
2017-11-14T08:30:43.987Z,2.10
2017-11-14T08:33:11.099Z,2.10
2017-11-14T08:35:38.438Z,2.10
2017-11-14T08:38:05.822Z,2.00
2017-11-14T08:40:32.464Z,2.00
2017-11-14T08:42:58.868Z,2.00
2017-11-14T08:45:25.271Z,2.10
2017-11-14T08:47:51.648Z,2.00
2017-11-14T08:50:18.011Z,2.00
2017-11-14T08:52:45.147Z,2.10
2017-11-14T08:55:11.516Z,2.10
2017-11-14T08:57:38.636Z,2.50
2017-11-14T09:00:05.788Z,2.60
2017-11-14T09:02:32.192Z,2.60
2017-11-14T09:04:58.648Z,2.70
2017-11-14T09:07:26.802Z,2.70
2017-11-14T09:09:53.222Z,2.70
2017-11-14T09:12:19.644Z,2.80
2017-11-14T09:14:46.043Z,2.80
2017-11-14T09:17:13.267Z,2.70
2017-11-14T09:19:39.683Z,2.70
2017-11-14T09:22:06.075Z,2.70
2017-11-14T09:24:33.472Z,2.90
2017-11-14T09:26:59.912Z,3.20
2017-11-14T09:29:26.333Z,3.40
2017-11-14T09:31:52.751Z,3.40
2017-11-14T09:34:19.152Z,3.50
2017-11-14T09:36:45.570Z,3.60
2017-11-14T09:39:12.725Z,3.50
2017-11-14T09:41:39.880Z,3.50
2017-11-14T09:44:07.024Z,3.70
2017-11-14T09:46:34.204Z,4.00
2017-11-14T09:49:00.635Z,4.00
2017-11-14T09:51:27.040Z,4.20
2017-11-14T09:53:54.909Z,4.50
2017-11-14T09:56:21.389Z,4.50
2017-11-14T09:58:47.801Z,4.70
2017-11-14T10:01:14.308Z,4.90
2017-11-14T10:03:40.706Z,5.00
2017-11-14T10:06:08.091Z,4.90
2017-11-14T10:08:34.496Z,4.90
2017-11-14T10:11:00.896Z,5.00
2017-11-14T10:13:27.291Z,5.30
2017-11-14T10:15:53.717Z,5.50
2017-11-14T10:18:20.127Z,5.50
2017-11-14T10:20:46.517Z,5.50
2017-11-14T10:23:13.660Z,5.50
2017-11-14T10:25:40.805Z,5.60
2017-11-14T10:28:07.929Z,5.60
2017-11-14T10:30:34.365Z,5.60
2017-11-14T10:33:00.784Z,5.60
2017-11-14T10:35:27.225Z,5.70
2017-11-14T10:37:53.680Z,5.70
2017-11-14T10:40:20.098Z,5.70
2017-11-14T10:42:46.560Z,5.70
2017-11-14T10:45:13.735Z,5.70
2017-11-14T10:47:40.131Z,5.70
2017-11-14T10:50:06.545Z,5.90
2017-11-14T10:52:32.959Z,6.00
2017-11-14T10:54:59.363Z,6.10
2017-11-14T10:57:25.765Z,6.20
2017-11-14T10:59:52.165Z,6.30
2017-11-14T11:02:18.569Z,6.50
2017-11-14T11:04:45.124Z,6.80
2017-11-14T11:07:11.521Z,6.90
2017-11-14T11:09:38.659Z,7.10
2017-11-14T11:12:05.796Z,7.30
2017-11-14T11:14:32.220Z,7.30
2017-11-14T11:16:58.668Z,7.50
2017-11-14T11:19:25.077Z,7.60
2017-11-14T11:21:51.483Z,7.60
2017-11-14T11:24:17.901Z,7.50
2017-11-14T11:26:44.309Z,7.20
2017-11-14T11:29:11.581Z,7.00
2017-11-14T11:31:37.959Z,7.00
2017-11-14T11:34:04.489Z,7.00
2017-11-14T11:36:30.908Z,6.80
2017-11-14T11:38:57.313Z,6.50
2017-11-14T11:41:25.497Z,6.10
2017-11-14T11:43:51.910Z,6.10
2017-11-14T11:46:18.324Z,6.10
2017-11-14T11:48:44.771Z,6.00
2017-11-14T11:51:11.165Z,5.90
2017-11-14T11:53:37.580Z,6.00
2017-11-14T11:56:04.748Z,6.60
2017-11-14T11:58:32.156Z,6.60
2017-11-14T12:00:59.311Z,7.00
2017-11-14T12:03:27.476Z,6.90
2017-11-14T12:05:53.881Z,6.90
2017-11-14T12:08:20.279Z,6.80
2017-11-14T12:10:46.708Z,6.70
2017-11-14T12:13:13.113Z,6.60
2017-11-14T12:15:40.271Z,6.70
2017-11-14T12:18:08.428Z,7.00
2017-11-14T12:20:34.850Z,7.00
2017-11-14T12:23:01.252Z,7.30
2017-11-14T12:25:27.656Z,7.60
2017-11-14T12:27:54.068Z,7.90
2017-11-14T12:30:21.233Z,8.90
2017-11-14T12:32:48.397Z,8.80
2017-11-14T12:35:14.855Z,8.80
2017-11-14T12:37:41.268Z,9.10
2017-11-14T12:40:08.673Z,9.60
2017-11-14T12:42:35.068Z,10.20
2017-11-14T12:45:01.474Z,10.70
2017-11-14T12:47:28.624Z,11.80
2017-11-14T12:49:55.792Z,12.10
2017-11-14T12:52:22.203Z,12.10
2017-11-14T12:54:49.332Z,11.70
2017-11-14T12:57:15.736Z,11.70
2017-11-14T12:59:42.167Z,12.00
2017-11-14T13:02:09.324Z,11.30
2017-11-14T13:04:35.711Z,11.30
2017-11-14T13:07:02.880Z,12.40
2017-11-14T13:09:29.290Z,12.30
2017-11-14T13:11:56.424Z,12.00
2017-11-14T13:14:22.786Z,12.00
2017-11-14T13:16:49.937Z,11.20
2017-11-14T13:19:17.080Z,11.00
2017-11-14T13:21:44.225Z,10.30
2017-11-14T13:24:11.352Z,10.30
2017-11-14T13:26:37.835Z,10.30
2017-11-14T13:29:04.236Z,10.40
2017-11-14T13:31:30.704Z,10.60
2017-11-14T13:33:57.150Z,10.70
2017-11-14T13:36:23.547Z,10.00
2017-11-14T13:38:50.669Z,9.10
2017-11-14T13:41:19.848Z,9.00
2017-11-14T13:43:46.236Z,9.20
2017-11-14T13:46:13.352Z,9.40
2017-11-14T13:48:39.708Z,9.30
2017-11-14T13:51:06.840Z,8.80
2017-11-14T13:53:33.209Z,8.70
2017-11-14T13:55:59.589Z,8.30
2017-11-14T13:58:25.968Z,8.00
2017-11-14T14:00:53.125Z,7.70
2017-11-14T14:03:19.493Z,7.80
2017-11-14T14:05:45.896Z,8.50
2017-11-14T14:08:12.277Z,9.40
2017-11-14T14:10:38.678Z,10.20
2017-11-14T14:13:05.091Z,10.80
2017-11-14T14:15:31.480Z,11.10
2017-11-14T14:17:57.849Z,11.20
2017-11-14T14:20:26.009Z,11.80
2017-11-14T14:22:53.133Z,11.90
2017-11-14T14:25:19.501Z,11.90
2017-11-14T14:27:47.657Z,12.00
2017-11-14T14:30:14.052Z,12.00
2017-11-14T14:32:40.425Z,11.90
2017-11-14T14:35:07.563Z,10.60
2017-11-14T14:37:33.937Z,10.60
2017-11-14T14:40:00.304Z,9.50
2017-11-14T14:42:26.695Z,8.70
2017-11-14T14:44:53.792Z,7.80
2017-11-14T14:47:20.185Z,7.70
2017-11-14T14:49:46.545Z,7.40
2017-11-14T14:52:13.654Z,6.70
2017-11-14T14:54:40.774Z,6.70
2017-11-14T14:57:07.157Z,6.60
2017-11-14T14:59:33.528Z,6.80
2017-11-14T15:01:59.904Z,7.00
2017-11-14T15:04:27.023Z,7.90
2017-11-14T15:06:53.384Z,7.90
2017-11-14T15:09:20.517Z,8.30
2017-11-14T15:11:47.866Z,8.20
2017-11-14T15:14:14.244Z,8.20
2017-11-14T15:16:40.618Z,8.10
2017-11-14T15:19:06.993Z,8.10
2017-11-14T15:21:33.385Z,8.00
2017-11-14T15:23:59.777Z,7.90
2017-11-14T15:26:27.153Z,7.40
2017-11-14T15:28:53.564Z,6.90
2017-11-14T15:31:19.993Z,6.50
2017-11-14T15:33:46.381Z,6.10
2017-11-14T15:36:12.769Z,5.70
2017-11-14T15:38:39.124Z,5.40
2017-11-14T15:41:05.494Z,5.00
2017-11-14T15:43:32.632Z,4.50
2017-11-14T15:45:59.007Z,4.50
2017-11-14T15:48:25.368Z,4.30
2017-11-14T15:50:51.765Z,4.20
2017-11-14T15:53:18.887Z,3.80
2017-11-14T15:55:46.018Z,3.50
2017-11-14T15:58:12.392Z,3.50
2017-11-14T16:00:39.518Z,3.20
2017-11-14T16:03:05.904Z,3.20
2017-11-14T16:05:32.261Z,3.00
2017-11-14T16:07:58.634Z,2.90
2017-11-14T16:10:25.043Z,2.80
2017-11-14T16:12:52.429Z,2.70
2017-11-14T16:15:19.535Z,2.50
2017-11-14T16:17:45.933Z,2.50
2017-11-14T16:20:12.300Z,2.40
2017-11-14T16:22:38.940Z,2.20
2017-11-14T16:25:05.335Z,2.20
2017-11-14T16:27:31.708Z,2.10
2017-11-14T16:29:58.107Z,2.00
2017-11-14T16:32:24.504Z,1.90
2017-11-14T16:34:51.648Z,1.80
2017-11-14T16:37:18.058Z,1.80
2017-11-14T16:39:44.453Z,1.70
2017-11-14T16:42:10.848Z,1.60
2017-11-14T16:44:38.973Z,1.50
2017-11-14T16:47:05.348Z,1.50
2017-11-14T16:49:31.730Z,1.50
2017-11-14T16:51:58.117Z,1.40
2017-11-14T16:54:24.495Z,1.30
2017-11-14T16:56:50.885Z,1.20
2017-11-14T16:59:17.281Z,1.20
2017-11-14T17:01:43.653Z,1.20
2017-11-14T17:04:11.052Z,1.20
2017-11-14T17:06:37.459Z,1.20
2017-11-14T17:09:04.584Z,1.30
2017-11-14T17:11:31.817Z,1.30
2017-11-14T17:13:58.237Z,1.30
2017-11-14T17:16:25.653Z,1.40
2017-11-14T17:18:52.027Z,1.40
2017-11-14T17:21:18.400Z,1.40
2017-11-14T17:23:44.996Z,1.40
2017-11-14T17:26:11.406Z,1.50
2017-11-14T17:28:37.780Z,1.60
2017-11-14T17:31:04.145Z,1.60
2017-11-14T17:33:32.345Z,1.80
2017-11-14T17:35:58.740Z,1.80
2017-11-14T17:38:25.099Z,1.90
2017-11-14T17:40:53.240Z,1.80
2017-11-14T17:43:19.842Z,1.80
2017-11-14T17:45:46.359Z,1.70
2017-11-14T17:48:12.933Z,1.70
2017-11-14T17:50:39.328Z,1.70
2017-11-14T17:53:05.704Z,1.80
2017-11-14T17:55:32.097Z,1.80
2017-11-14T17:57:59.488Z,1.80
2017-11-14T18:00:25.884Z,1.80
2017-11-14T18:02:52.233Z,1.80
2017-11-14T18:05:18.624Z,1.70
2017-11-14T18:07:45.740Z,1.60
2017-11-14T18:10:12.150Z,1.50
2017-11-14T18:12:38.528Z,1.60
2017-11-14T18:15:04.911Z,1.60
2017-11-14T18:17:31.267Z,1.80
2017-11-14T18:19:57.644Z,1.80
2017-11-14T18:22:25.728Z,1.90
2017-11-14T18:24:52.097Z,1.90
2017-11-14T18:27:18.476Z,1.80
2017-11-14T18:29:45.622Z,1.90
2017-11-14T18:32:11.977Z,1.90
2017-11-14T18:34:38.348Z,1.90
2017-11-14T18:37:04.729Z,2.00
2017-11-14T18:39:31.831Z,2.10
2017-11-14T18:41:59.106Z,2.00
2017-11-14T18:44:25.507Z,2.10
2017-11-14T18:46:52.879Z,2.10
2017-11-14T18:49:20.268Z,2.10
2017-11-14T18:51:47.381Z,2.20
2017-11-14T18:54:13.768Z,2.10
2017-11-14T18:56:40.872Z,2.10
2017-11-14T18:59:07.237Z,2.10
2017-11-14T19:01:34.336Z,2.20
2017-11-14T19:04:00.721Z,2.20
2017-11-14T19:06:27.828Z,2.10
2017-11-14T19:08:54.201Z,2.10
2017-11-14T19:11:21.315Z,2.00
2017-11-14T19:13:47.679Z,1.90
2017-11-14T19:16:14.784Z,2.20
2017-11-14T19:18:41.172Z,2.20
2017-11-14T19:21:08.273Z,2.40
2017-11-14T19:23:34.674Z,2.30
2017-11-14T19:26:01.254Z,2.40
2017-11-14T19:28:27.612Z,2.30
2017-11-14T19:30:54.783Z,2.30
2017-11-14T19:33:21.747Z,2.30
2017-11-14T19:35:48.313Z,2.20
2017-11-14T19:38:15.918Z,2.30
2017-11-14T19:40:43.047Z,2.20
2017-11-14T19:43:09.671Z,2.10
2017-11-14T19:45:36.063Z,2.20
2017-11-14T19:48:02.631Z,2.20
2017-11-14T19:50:29.157Z,2.10
2017-11-14T19:52:56.499Z,2.10
2017-11-14T19:55:22.864Z,2.10
2017-11-14T19:57:49.228Z,2.00
2017-11-14T20:00:17.641Z,2.20
2017-11-14T20:02:44.143Z,2.10
2017-11-14T20:05:11.306Z,2.20
2017-11-14T20:07:37.761Z,2.20
2017-11-14T20:10:04.404Z,2.20
2017-11-14T20:12:30.804Z,2.30
2017-11-14T20:14:57.188Z,2.20
2017-11-14T20:17:24.484Z,2.30
2017-11-14T20:19:50.915Z,2.20
2017-11-14T20:22:17.313Z,2.30
2017-11-14T20:24:43.933Z,2.20
2017-11-14T20:27:10.432Z,2.20
2017-11-14T20:29:37.756Z,2.20
2017-11-14T20:32:04.151Z,2.20
2017-11-14T20:34:30.520Z,2.20
2017-11-14T20:36:56.983Z,2.10
2017-11-14T20:39:24.272Z,2.20
2017-11-14T20:41:50.826Z,2.10
2017-11-14T20:44:17.176Z,2.20
2017-11-14T20:46:43.552Z,2.20
2017-11-14T20:49:10.668Z,2.20
2017-11-14T20:51:37.065Z,2.10
2017-11-14T20:54:03.452Z,2.10
2017-11-14T20:56:30.839Z,2.10
2017-11-14T20:58:57.413Z,2.10
2017-11-14T21:01:23.765Z,2.10
2017-11-14T21:03:50.159Z,2.00
2017-11-14T21:06:17.271Z,1.90
2017-11-14T21:08:44.432Z,1.90
2017-11-14T21:11:10.780Z,1.80
2017-11-14T21:13:37.132Z,1.80
2017-11-14T21:16:03.493Z,1.90
2017-11-14T21:18:29.867Z,2.00
2017-11-14T21:20:56.256Z,2.00
2017-11-14T21:23:23.674Z,2.20
2017-11-14T21:25:50.080Z,2.20
2017-11-14T21:28:17.180Z,1.70
2017-11-14T21:30:43.560Z,1.70
2017-11-14T21:33:10.665Z,1.60
2017-11-14T21:35:37.044Z,1.60
2017-11-14T21:38:03.423Z,1.70
2017-11-14T21:40:29.784Z,1.70
2017-11-14T21:42:56.144Z,1.70
2017-11-14T21:45:23.399Z,1.80
2017-11-14T21:47:49.768Z,1.90
2017-11-14T21:50:16.144Z,1.80
2017-11-14T21:52:43.259Z,1.80
2017-11-14T21:55:09.658Z,1.80
2017-11-14T21:57:36.060Z,1.80
2017-11-14T22:00:03.196Z,1.70
2017-11-14T22:02:29.569Z,1.70
2017-11-14T22:04:55.928Z,1.90
2017-11-14T22:07:22.288Z,1.80
2017-11-14T22:09:48.640Z,1.80
2017-11-14T22:12:15.735Z,1.70
2017-11-14T22:14:43.121Z,1.70
2017-11-14T22:17:09.528Z,1.80
2017-11-14T22:19:35.931Z,1.80
2017-11-14T22:22:02.304Z,1.80
2017-11-14T22:24:29.679Z,1.80
2017-11-14T22:26:56.115Z,1.70
2017-11-14T22:29:22.473Z,1.70
2017-11-14T22:31:49.576Z,1.70
2017-11-14T22:34:15.940Z,1.60
2017-11-14T22:36:42.340Z,1.60
2017-11-14T22:39:08.728Z,1.70
2017-11-14T22:41:35.860Z,1.80
2017-11-14T22:44:03.012Z,1.90
2017-11-14T22:46:30.120Z,1.80
2017-11-14T22:48:56.475Z,1.90
2017-11-14T22:51:22.840Z,1.90
2017-11-14T22:53:49.982Z,1.80
2017-11-14T22:56:17.088Z,1.90
2017-11-14T22:58:44.529Z,1.80
2017-11-14T23:01:10.901Z,1.90
2017-11-14T23:03:37.276Z,1.80
2017-11-14T23:06:03.668Z,1.60
2017-11-14T23:08:30.020Z,1.80
2017-11-14T23:10:57.133Z,1.90
2017-11-14T23:13:23.516Z,1.90
2017-11-14T23:15:50.651Z,1.80
2017-11-14T23:18:17.011Z,1.80
2017-11-14T23:20:43.390Z,1.80
2017-11-14T23:23:09.795Z,1.80
2017-11-14T23:25:36.165Z,1.80
2017-11-14T23:28:02.551Z,1.70
2017-11-14T23:30:28.940Z,1.80
2017-11-14T23:32:55.307Z,1.70
2017-11-14T23:35:21.687Z,1.80
2017-11-14T23:37:48.097Z,1.80
2017-11-14T23:40:15.217Z,1.80
2017-11-14T23:42:41.604Z,1.70
2017-11-14T23:45:08.020Z,1.80
2017-11-14T23:47:34.419Z,1.80
2017-11-14T23:50:01.384Z,1.90
2017-11-14T23:52:27.775Z,1.80
2017-11-14T23:54:54.904Z,1.80
2017-11-14T23:57:21.316Z,1.80
2017-11-14T23:59:47.703Z,1.80
